John H. — WAC6768 — position and weather

sailwx.info

Track history (hours):
 
Tides and Currents Weather Stations Pressure Air Temp Water Temp Dewpoint Dewpoint Depression Visibility Wind Speed Wind Dir Waves Ship Positions

John H.

Owner: CROSS SOUND FERRY SERVICE INC, NEW LOUDON, CT. More information available from US FCC via Universal Licensing System and Coast Guard Vessel Documentation Center.

Last reported at 2016-Jun-27 01:33 UTC. Time now 2016-Jun-27 06:05 UTC.
Position N 41°12' W 072°11'.

Length 70 m.

Type: Passenger vessel. MMSI: 366934890.

Date/timePositionNaut miles runAvg speedWind from/ knotsBaromVisibWave heightAir tempDewpointWater temp
2016-Jun-27 01:33N 41°12' W 072°11'3 2.8
2016-Jun-27 00:22N 41°09' W 072°14'3 0.5
2016-Jun-26 17:29N 41°12' W 072°12'2 1.6
2016-Jun-26 16:06N 41°10' W 072°14'3 1.3
2016-Jun-26 13:33N 41°13' W 072°10'5 4.6
2016-Jun-26 12:33N 41°09' W 072°14'11 9.8
2016-Jun-26 11:28N 41°18' W 072°06'5 0.4
2016-Jun-25 23:33N 41°14' W 072°09'4 2.5
2016-Jun-25 22:05N 41°11' W 072°13'1 0.4
2016-Jun-25 19:26N 41°12' W 072°12'3 2.9
2016-Jun-25 18:20N 41°09' W 072°14'1012.5
2016-Jun-25 17:34N 41°17' W 072°06'5 2.3
2016-Jun-25 15:32N 41°13' W 072°10'1 0.2
2016-Jun-25 11:33N 41°14' W 072°09'2 0.2
2016-Jun-25 01:32N 41°13' W 072°11'1 0.7
2016-Jun-24 23:31N 41°14' W 072°09'5 4.3
2016-Jun-24 22:19N 41°09' W 072°13'1 0.2
2016-Jun-24 18:12N 41°10' W 072°14'5 0.2
2016-Jun-23 21:33N 41°14' W 072°09'3 1.5
2016-Jun-23 19:32N 41°16' W 072°07'5 2.6
2016-Jun-23 17:26N 41°12' W 072°12'2 1.7
2016-Jun-23 16:07N 41°10' W 072°13'1 0.3
2016-Jun-23 12:20N 41°09' W 072°14'911.2
2016-Jun-23 11:33N 41°16' W 072°07'4 0.4
2016-Jun-22 23:33N 41°13' W 072°11'3 0.1
2016-Jun-22 00:05N 41°10' W 072°13'2 0.8
2016-Jun-21 21:29N 41°12' W 072°12'2 1.2
2016-Jun-21 20:12N 41°11' W 072°13'1 0.3
2016-Jun-21 16:07N 41°12' W 072°13'2 0.5
2016-Jun-21 12:13N 41°10' W 072°14'1 0.1
2016-Jun-20 14:34N 41°09' W 072°14'0 0.0
2016-Jun-20 10:11N 41°09' W 072°14'6 0.7
2016-Jun-20 01:33N 41°14' W 072°10'6 4.5
2016-Jun-20 00:11N 41°19' W 072°05'812.4
2016-Jun-19 23:33N 41°12' W 072°11'4 3.5
2016-Jun-19 22:24N 41°09' W 072°14'910.7
2016-Jun-19 21:33N 41°16' W 072°07'4 2.1
2016-Jun-19 19:33N 41°13' W 072°10'5 4.0
2016-Jun-19 18:21N 41°09' W 072°14'911.5
2016-Jun-19 17:33N 41°16' W 072°07'4 0.7
2016-Jun-19 11:31N 41°13' W 072°10'5 5.4
2016-Jun-19 10:33N 41°09' W 072°14'0 0.0
2016-Jun-19 00:15N 41°09' W 072°14'812.1
2016-Jun-18 23:33N 41°16' W 072°08'3 1.6
2016-Jun-18 21:33N 41°13' W 072°10'5 4.3
2016-Jun-18 20:21N 41°09' W 072°14'911.3
2016-Jun-18 19:33N 41°16' W 072°07'5 2.2
2016-Jun-18 17:31N 41°13' W 072°11'4 3.9
2016-Jun-18 16:22N 41°09' W 072°14'12 5.3
2016-Jun-18 14:05N 41°19' W 072°05'712.8
2016-Jun-18 13:33N 41°13' W 072°10'5 5.1
2016-Jun-18 12:30N 41°09' W 072°14'8 8.3
2016-Jun-18 11:33N 41°16' W 072°08'6 6.1
2016-Jun-18 10:33N 41°21' W 072°06'0 0.0
2016-Jun-18 02:18N 41°21' W 072°06'810.3
2016-Jun-18 01:32N 41°14' W 072°09'6 5.0
2016-Jun-18 00:18N 41°09' W 072°14'810.7
2016-Jun-17 23:33N 41°16' W 072°08'6 4.8
2016-Jun-17 22:18N 41°21' W 072°05'810.9
2016-Jun-17 21:33N 41°14' W 072°10'6 5.5
2016-Jun-17 20:29N 41°09' W 072°14'8 9.0
2016-Jun-17 19:33N 41°16' W 072°08'4 2.9
2016-Jun-17 18:04N 41°20' W 072°05'713.2
2016-Jun-17 17:33N 41°14' W 072°10'4 2.5
2016-Jun-17 16:03N 41°11' W 072°13'12 6.9
2016-Jun-17 14:22N 41°21' W 072°05'1110.7
2016-Jun-17 13:22N 41°12' W 072°12'3 3.9
2016-Jun-17 12:33N 41°09' W 072°14'  
Track history (hours):
 
Tides and Currents Weather Stations Pressure Air Temp Water Temp Dewpoint Dewpoint Depression Visibility Wind Speed Wind Dir Waves Ship Positions

John H.

Owner: CROSS SOUND FERRY SERVICE INC, NEW LOUDON, CT. More information available from US FCC via Universal Licensing System and Coast Guard Vessel Documentation Center.

Last reported at 2016-Jun-27 01:33 UTC. Time now 2016-Jun-27 06:05 UTC.
Position N 41°12' W 072°11'.

Length 70 m.

Type: Passenger vessel. MMSI: 366934890.

Date/timePositionNaut miles runAvg speedWind from/ knotsBaromVisibWave heightAir tempDewpointWater temp
2016-Jun-27 01:33N 41°12' W 072°11'3 2.8
2016-Jun-27 00:22N 41°09' W 072°14'3 0.5
2016-Jun-26 17:29N 41°12' W 072°12'2 1.6
2016-Jun-26 16:06N 41°10' W 072°14'3 1.3
2016-Jun-26 13:33N 41°13' W 072°10'5 4.6
2016-Jun-26 12:33N 41°09' W 072°14'11 9.8
2016-Jun-26 11:28N 41°18' W 072°06'5 0.4
2016-Jun-25 23:33N 41°14' W 072°09'4 2.5
2016-Jun-25 22:05N 41°11' W 072°13'1 0.4
2016-Jun-25 19:26N 41°12' W 072°12'3 2.9
2016-Jun-25 18:20N 41°09' W 072°14'1012.5
2016-Jun-25 17:34N 41°17' W 072°06'5 2.3
2016-Jun-25 15:32N 41°13' W 072°10'1 0.2
2016-Jun-25 11:33N 41°14' W 072°09'2 0.2
2016-Jun-25 01:32N 41°13' W 072°11'1 0.7
2016-Jun-24 23:31N 41°14' W 072°09'5 4.3
2016-Jun-24 22:19N 41°09' W 072°13'1 0.2
2016-Jun-24 18:12N 41°10' W 072°14'5 0.2
2016-Jun-23 21:33N 41°14' W 072°09'3 1.5
2016-Jun-23 19:32N 41°16' W 072°07'5 2.6
2016-Jun-23 17:26N 41°12' W 072°12'2 1.7
2016-Jun-23 16:07N 41°10' W 072°13'1 0.3
2016-Jun-23 12:20N 41°09' W 072°14'911.2
2016-Jun-23 11:33N 41°16' W 072°07'4 0.4
2016-Jun-22 23:33N 41°13' W 072°11'3 0.1
2016-Jun-22 00:05N 41°10' W 072°13'2 0.8
2016-Jun-21 21:29N 41°12' W 072°12'2 1.2
2016-Jun-21 20:12N 41°11' W 072°13'1 0.3
2016-Jun-21 16:07N 41°12' W 072°13'2 0.5
2016-Jun-21 12:13N 41°10' W 072°14'1 0.1
2016-Jun-20 14:34N 41°09' W 072°14'0 0.0
2016-Jun-20 10:11N 41°09' W 072°14'6 0.7
2016-Jun-20 01:33N 41°14' W 072°10'6 4.5
2016-Jun-20 00:11N 41°19' W 072°05'812.4
2016-Jun-19 23:33N 41°12' W 072°11'4 3.5
2016-Jun-19 22:24N 41°09' W 072°14'910.7
2016-Jun-19 21:33N 41°16' W 072°07'4 2.1
2016-Jun-19 19:33N 41°13' W 072°10'5 4.0
2016-Jun-19 18:21N 41°09' W 072°14'911.5
2016-Jun-19 17:33N 41°16' W 072°07'4 0.7
2016-Jun-19 11:31N 41°13' W 072°10'5 5.4
2016-Jun-19 10:33N 41°09' W 072°14'0 0.0
2016-Jun-19 00:15N 41°09' W 072°14'812.1
2016-Jun-18 23:33N 41°16' W 072°08'3 1.6
2016-Jun-18 21:33N 41°13' W 072°10'5 4.3
2016-Jun-18 20:21N 41°09' W 072°14'911.3
2016-Jun-18 19:33N 41°16' W 072°07'5 2.2
2016-Jun-18 17:31N 41°13' W 072°11'4 3.9
2016-Jun-18 16:22N 41°09' W 072°14'12 5.3
2016-Jun-18 14:05N 41°19' W 072°05'712.8
2016-Jun-18 13:33N 41°13' W 072°10'5 5.1
2016-Jun-18 12:30N 41°09' W 072°14'8 8.3
2016-Jun-18 11:33N 41°16' W 072°08'6 6.1
2016-Jun-18 10:33N 41°21' W 072°06'0 0.0
2016-Jun-18 02:18N 41°21' W 072°06'810.3
2016-Jun-18 01:32N 41°14' W 072°09'6 5.0
2016-Jun-18 00:18N 41°09' W 072°14'810.7
2016-Jun-17 23:33N 41°16' W 072°08'6 4.8
2016-Jun-17 22:18N 41°21' W 072°05'810.9
2016-Jun-17 21:33N 41°14' W 072°10'6 5.5
2016-Jun-17 20:29N 41°09' W 072°14'8 9.0
2016-Jun-17 19:33N 41°16' W 072°08'4 2.9
2016-Jun-17 18:04N 41°20' W 072°05'713.2
2016-Jun-17 17:33N 41°14' W 072°10'4 2.5
2016-Jun-17 16:03N 41°11' W 072°13'12 6.9
2016-Jun-17 14:22N 41°21' W 072°05'1110.7
2016-Jun-17 13:22N 41°12' W 072°12'3 3.9
2016-Jun-17 12:33N 41°09' W 072°14'  

Dump ship's entire track history